createdAt,value
2019-03-03T00:01:15.578Z,11.93
2019-03-03T00:03:43.678Z,14.33
2019-03-03T00:06:11.729Z,13.15
2019-03-03T00:08:39.685Z,12.73
2019-03-03T00:11:07.663Z,12.50
2019-03-03T00:13:35.614Z,11.20
2019-03-03T00:16:03.591Z,11.88
2019-03-03T00:18:31.979Z,10.23
2019-03-03T00:20:59.921Z,10.15
2019-03-03T00:23:27.971Z,11.50
2019-03-03T00:25:56.095Z,10.58
2019-03-03T00:28:24.062Z,9.63
2019-03-03T00:30:53.967Z,10.20
2019-03-03T00:33:21.637Z,11.73
2019-03-03T00:35:49.588Z,11.57
2019-03-03T00:38:23.903Z,12.47
2019-03-03T00:41:22.596Z,10.82
2019-03-03T00:44:15.570Z,11.00
2019-03-03T00:46:53.010Z,12.15
2019-03-03T00:49:46.121Z,11.57
2019-03-03T00:52:35.901Z,11.05
2019-03-03T00:55:16.245Z,10.32
2019-03-03T00:57:58.157Z,9.90
2019-03-03T01:00:36.569Z,9.55
2019-03-03T01:03:21.791Z,11.20
2019-03-03T01:06:11.525Z,11.30
2019-03-03T01:08:55.245Z,10.98
2019-03-03T01:11:40.716Z,9.83
2019-03-03T01:14:33.477Z,11.40
2019-03-03T01:17:17.174Z,10.48
2019-03-03T01:20:12.727Z,11.00
2019-03-03T01:22:59.006Z,9.95
2019-03-03T01:25:27.016Z,9.80
2019-03-03T01:27:55.092Z,10.32
2019-03-03T01:30:23.166Z,9.65
2019-03-03T01:32:51.439Z,10.25
2019-03-03T01:35:19.510Z,9.20
2019-03-03T01:37:47.787Z,9.45
2019-03-03T01:40:15.964Z,10.53
2019-03-03T01:42:44.037Z,9.80
2019-03-03T01:45:12.298Z,9.70
2019-03-03T01:47:40.586Z,10.05
2019-03-03T01:50:08.745Z,9.65
2019-03-03T01:52:36.732Z,9.88
2019-03-03T01:55:05.912Z,10.25
2019-03-03T01:57:33.870Z,8.30
2019-03-03T02:00:01.967Z,8.80
2019-03-03T02:02:30.247Z,8.80
2019-03-03T02:04:58.213Z,8.33
2019-03-03T02:07:26.388Z,8.28
2019-03-03T02:09:56.104Z,8.08
2019-03-03T02:12:24.275Z,8.78
2019-03-03T02:14:52.243Z,8.55
2019-03-03T02:17:20.217Z,8.05
2019-03-03T02:19:49.894Z,8.88
2019-03-03T02:22:17.992Z,8.05
2019-03-03T02:24:45.936Z,8.70
2019-03-03T02:27:16.445Z,8.48
2019-03-03T02:29:44.539Z,8.05
2019-03-03T02:32:12.536Z,7.75
2019-03-03T02:34:40.492Z,8.05
2019-03-03T02:37:08.679Z,8.45
2019-03-03T02:39:38.346Z,8.50
2019-03-03T02:42:06.461Z,8.48
2019-03-03T02:44:34.634Z,9.13
2019-03-03T02:47:02.710Z,8.40
2019-03-03T02:49:30.783Z,10.00
2019-03-03T02:52:00.748Z,10.32
2019-03-03T02:54:29.278Z,9.60
2019-03-03T02:56:57.252Z,10.65
2019-03-03T02:59:27.050Z,9.78
2019-03-03T03:02:07.480Z,10.40
2019-03-03T03:04:35.679Z,10.50
2019-03-03T03:07:27.046Z,9.60
2019-03-03T03:10:09.293Z,9.40
2019-03-03T03:13:08.112Z,9.83
2019-03-03T03:15:56.897Z,11.10
2019-03-03T03:18:43.651Z,11.70
2019-03-03T03:21:40.673Z,12.03
2019-03-03T03:24:33.277Z,10.58
2019-03-03T03:27:26.522Z,9.90
2019-03-03T03:30:09.379Z,9.23
2019-03-03T03:32:47.971Z,9.13
2019-03-03T03:35:25.524Z,8.60
2019-03-03T03:38:09.198Z,9.08
2019-03-03T03:40:48.976Z,9.78
2019-03-03T03:43:38.268Z,10.48
2019-03-03T03:46:22.146Z,10.28
2019-03-03T03:49:01.274Z,9.88
2019-03-03T03:51:41.503Z,11.73
2019-03-03T03:54:28.261Z,11.30
2019-03-03T03:57:13.408Z,10.28
2019-03-03T04:00:12.531Z,10.48
2019-03-03T04:03:05.079Z,8.98
2019-03-03T04:05:54.660Z,9.70
2019-03-03T04:08:43.399Z,9.60
2019-03-03T04:11:36.443Z,9.15
2019-03-03T04:14:11.389Z,8.70
2019-03-03T04:17:04.226Z,7.90
2019-03-03T04:19:52.953Z,9.45
2019-03-03T04:22:54.848Z,8.78
2019-03-03T04:25:44.762Z,9.40
2019-03-03T04:28:30.340Z,9.23
2019-03-03T04:31:17.125Z,9.53
2019-03-03T04:34:03.859Z,13.08
2019-03-03T04:36:49.627Z,13.25
2019-03-03T04:39:27.233Z,13.88
2019-03-03T04:42:12.724Z,14.95
2019-03-03T04:44:58.077Z,13.70
2019-03-03T04:47:42.148Z,13.32
2019-03-03T04:50:31.903Z,14.85
2019-03-03T04:53:09.298Z,11.35
2019-03-03T04:55:56.111Z,10.38
2019-03-03T04:58:31.442Z,11.95
2019-03-03T05:01:17.154Z,11.83
2019-03-03T05:04:03.945Z,10.65
2019-03-03T05:07:01.609Z,10.20
2019-03-03T05:09:48.597Z,8.90
2019-03-03T05:12:26.037Z,10.13
2019-03-03T05:14:56.357Z,12.13
2019-03-03T05:17:45.988Z,12.65
2019-03-03T05:20:14.115Z,11.53
2019-03-03T05:22:42.082Z,9.95
2019-03-03T05:25:10.032Z,8.90
2019-03-03T05:27:38.023Z,9.38
2019-03-03T05:30:05.991Z,7.47
2019-03-03T05:32:33.943Z,7.17
2019-03-03T05:35:01.936Z,7.92
2019-03-03T05:37:30.945Z,6.70
2019-03-03T05:40:00.231Z,6.97
2019-03-03T05:42:35.410Z,5.92
2019-03-03T05:45:03.433Z,7.17
2019-03-03T05:47:31.379Z,8.18
2019-03-03T05:49:59.785Z,8.25
2019-03-03T05:52:27.824Z,9.08
2019-03-03T05:54:57.634Z,9.38
2019-03-03T05:57:27.428Z,7.12
2019-03-03T05:59:55.345Z,6.03
2019-03-03T06:02:23.596Z,7.72
2019-03-03T06:04:53.597Z,7.28
2019-03-03T06:07:21.813Z,8.43
2019-03-03T06:09:49.785Z,6.95
2019-03-03T06:12:17.735Z,7.85
2019-03-03T06:14:45.726Z,8.60
2019-03-03T06:17:13.698Z,9.40
2019-03-03T06:19:42.537Z,7.92
2019-03-03T06:22:10.556Z,8.00
2019-03-03T06:24:38.456Z,7.35
2019-03-03T06:27:06.568Z,6.00
2019-03-03T06:29:34.539Z,5.37
2019-03-03T06:32:02.515Z,6.30
2019-03-03T06:34:30.608Z,6.35
2019-03-03T06:37:00.478Z,5.90
2019-03-03T06:39:28.286Z,6.75
2019-03-03T06:41:56.354Z,7.62
2019-03-03T06:44:24.431Z,8.30
2019-03-03T06:46:52.377Z,8.10
2019-03-03T06:49:20.470Z,7.75
2019-03-03T06:51:48.421Z,8.13
2019-03-03T06:54:16.408Z,8.08
2019-03-03T06:56:46.319Z,8.98
2019-03-03T06:59:13.989Z,10.03
2019-03-03T07:01:41.958Z,10.58
2019-03-03T07:04:12.265Z,9.05
2019-03-03T07:06:39.921Z,7.85
2019-03-03T07:09:08.019Z,6.78
2019-03-03T07:11:37.699Z,6.65
2019-03-03T07:14:05.665Z,6.30
2019-03-03T07:16:33.767Z,5.85
2019-03-03T07:19:01.707Z,5.80
2019-03-03T07:21:29.678Z,5.80
2019-03-03T07:23:57.645Z,5.25
2019-03-03T07:26:25.643Z,4.87
2019-03-03T07:28:53.615Z,5.47
2019-03-03T07:31:21.558Z,5.28
2019-03-03T07:33:53.545Z,5.15
2019-03-03T07:36:21.515Z,4.78
2019-03-03T07:38:50.604Z,4.90
2019-03-03T07:41:19.092Z,4.25
2019-03-03T07:43:47.059Z,4.62
2019-03-03T07:46:15.131Z,4.80
2019-03-03T07:48:43.174Z,4.90
2019-03-03T07:51:11.146Z,4.43
2019-03-03T07:53:39.143Z,5.43
2019-03-03T07:56:09.113Z,4.40
2019-03-03T07:58:36.821Z,4.60
2019-03-03T08:01:05.303Z,4.67
2019-03-03T08:03:33.375Z,4.90
2019-03-03T08:06:01.319Z,4.20
2019-03-03T08:08:29.425Z,4.00
2019-03-03T08:10:57.594Z,3.97
2019-03-03T08:13:25.765Z,3.83
2019-03-03T08:15:53.913Z,3.83
2019-03-03T08:18:22.009Z,4.13
2019-03-03T08:20:50.188Z,3.50
2019-03-03T08:23:18.212Z,3.80
2019-03-03T08:25:48.061Z,3.33
2019-03-03T08:28:15.728Z,4.20
2019-03-03T08:30:43.681Z,8.30
2019-03-03T08:33:12.710Z,5.60
2019-03-03T08:35:40.666Z,4.30
2019-03-03T08:38:08.632Z,9.30
2019-03-03T08:40:36.993Z,6.50
2019-03-03T08:43:22.595Z,7.03
2019-03-03T08:46:15.656Z,6.90
2019-03-03T08:48:54.481Z,7.70
2019-03-03T08:51:34.717Z,8.40
2019-03-03T08:54:21.634Z,7.97
2019-03-03T08:57:16.828Z,7.87
2019-03-03T09:00:03.541Z,7.03
2019-03-03T09:02:44.725Z,7.20
2019-03-03T09:05:36.966Z,7.37
2019-03-03T09:08:13.331Z,7.10
2019-03-03T09:10:48.974Z,58.23
2019-03-03T09:13:35.707Z,7.23
2019-03-03T09:16:28.765Z,6.77
2019-03-03T09:19:22.723Z,5.90
2019-03-03T09:22:04.782Z,6.10
2019-03-03T09:25:03.820Z,4.17
2019-03-03T09:27:47.558Z,2.90
2019-03-03T09:30:32.014Z,2.37
2019-03-03T09:33:34.282Z,2.33
2019-03-03T09:36:14.945Z,2.07
2019-03-03T09:39:01.786Z,3.10
2019-03-03T09:42:00.865Z,4.13
2019-03-03T09:44:50.564Z,4.07
2019-03-03T09:47:40.142Z,4.23
2019-03-03T09:50:21.480Z,4.20
2019-03-03T09:53:16.818Z,5.30
2019-03-03T09:56:01.806Z,4.50
2019-03-03T09:58:40.199Z,8.40
2019-03-03T10:01:20.168Z,8.53
2019-03-03T10:04:16.297Z,9.03
2019-03-03T10:07:06.182Z,7.90
2019-03-03T10:09:56.575Z,8.30
2019-03-03T10:12:39.694Z,9.57
2019-03-03T10:15:26.498Z,12.70
2019-03-03T10:18:10.860Z,8.47
2019-03-03T10:20:56.446Z,8.80
2019-03-03T10:23:55.444Z,10.83
2019-03-03T10:26:35.135Z,8.90
2019-03-03T10:29:24.990Z,8.70
2019-03-03T10:32:06.750Z,9.97
2019-03-03T10:34:56.546Z,10.63
2019-03-03T10:38:02.968Z,11.07
2019-03-03T10:40:48.395Z,9.40
2019-03-03T10:43:35.104Z,10.60
2019-03-03T10:46:20.558Z,11.47
2019-03-03T10:49:13.420Z,12.00
2019-03-03T10:52:06.601Z,11.80
2019-03-03T10:54:43.040Z,8.33
2019-03-03T10:57:38.891Z,8.27
2019-03-03T11:00:43.827Z,8.30
2019-03-03T11:03:33.586Z,8.20
2019-03-03T11:06:20.394Z,9.00
2019-03-03T11:09:16.242Z,8.97
2019-03-03T11:11:55.861Z,10.67
2019-03-03T11:14:48.401Z,9.10
2019-03-03T11:17:28.260Z,10.37
2019-03-03T11:20:14.678Z,10.60
2019-03-03T11:23:01.592Z,9.50
2019-03-03T11:25:47.283Z,7.93
2019-03-03T11:28:32.840Z,9.23
2019-03-03T11:31:22.313Z,8.60
2019-03-03T11:34:07.617Z,7.50
2019-03-03T11:36:54.349Z,8.10
2019-03-03T11:39:41.134Z,9.30
2019-03-03T11:42:19.850Z,10.00
2019-03-03T11:45:13.110Z,11.27
2019-03-03T11:48:04.391Z,9.90
2019-03-03T11:50:55.949Z,10.83
2019-03-03T11:53:38.663Z,10.77
2019-03-03T11:56:21.854Z,11.00
2019-03-03T11:59:20.999Z,10.63
2019-03-03T12:02:06.576Z,10.60
2019-03-03T12:04:59.297Z,10.63
2019-03-03T12:08:01.211Z,11.00
2019-03-03T12:10:46.437Z,12.47
2019-03-03T12:13:29.362Z,13.53
2019-03-03T12:16:16.299Z,15.63
2019-03-03T12:19:06.050Z,15.73
2019-03-03T12:21:51.790Z,15.07
2019-03-03T12:24:47.509Z,15.33
2019-03-03T12:27:23.886Z,16.10
2019-03-03T12:30:09.291Z,17.23
2019-03-03T12:32:51.907Z,18.80
2019-03-03T12:35:27.753Z,21.57
2019-03-03T12:38:22.822Z,17.83
2019-03-03T12:41:21.687Z,18.53
2019-03-03T12:44:20.607Z,18.37
2019-03-03T12:47:10.184Z,19.17
2019-03-03T12:50:01.486Z,17.63
2019-03-03T12:52:48.141Z,14.53
2019-03-03T12:55:47.292Z,15.93
2019-03-03T12:58:40.123Z,10.50
2019-03-03T13:01:34.370Z,11.23
2019-03-03T13:04:20.216Z,8.50
2019-03-03T13:07:10.372Z,10.77
2019-03-03T13:09:52.986Z,13.93
2019-03-03T13:12:36.532Z,10.93
2019-03-03T13:15:17.531Z,14.40
2019-03-03T13:17:51.824Z,13.50
2019-03-03T13:20:40.458Z,12.90
2019-03-03T13:23:28.193Z,13.40
2019-03-03T13:26:17.673Z,7.27
2019-03-03T13:29:13.303Z,6.30
2019-03-03T13:31:47.518Z,12.30
2019-03-03T13:34:24.110Z,14.07
2019-03-03T13:37:10.812Z,16.67
2019-03-03T13:40:06.724Z,14.70
2019-03-03T13:42:56.320Z,13.90
2019-03-03T13:45:25.689Z,10.40
2019-03-03T13:47:53.796Z,14.23
2019-03-03T13:50:21.767Z,9.53
2019-03-03T13:52:49.839Z,13.40
2019-03-03T13:55:20.961Z,12.23
2019-03-03T13:57:48.950Z,9.13
2019-03-03T14:00:18.542Z,11.63
2019-03-03T14:02:46.607Z,9.20
2019-03-03T14:05:14.702Z,9.97
2019-03-03T14:07:43.860Z,12.43
2019-03-03T14:10:11.973Z,9.23
2019-03-03T14:12:41.694Z,7.93
2019-03-03T14:15:09.945Z,8.53
2019-03-03T14:17:37.906Z,6.53
2019-03-03T14:20:05.909Z,6.20
2019-03-03T14:22:34.255Z,6.60
2019-03-03T14:25:02.757Z,4.47
2019-03-03T14:27:31.035Z,4.20
2019-03-03T14:29:59.087Z,6.27
2019-03-03T14:32:27.052Z,4.67
2019-03-03T14:34:56.213Z,5.03
2019-03-03T14:37:24.349Z,4.67
2019-03-03T14:39:53.851Z,5.93
2019-03-03T14:42:22.353Z,12.20
2019-03-03T14:44:50.303Z,10.90
2019-03-03T14:47:18.258Z,5.83
2019-03-03T14:49:47.693Z,6.53
2019-03-03T14:52:16.257Z,10.03
2019-03-03T14:54:44.201Z,12.53
2019-03-03T14:57:12.199Z,6.80
2019-03-03T14:59:40.269Z,6.60
2019-03-03T15:02:08.232Z,6.27
2019-03-03T15:04:36.209Z,4.30
2019-03-03T15:07:04.151Z,4.40
2019-03-03T15:09:33.182Z,4.50
2019-03-03T15:12:01.153Z,4.17
2019-03-03T15:14:29.286Z,4.17
2019-03-03T15:16:57.403Z,3.50
2019-03-03T15:19:25.643Z,3.80
2019-03-03T15:21:53.845Z,3.87
2019-03-03T15:24:21.992Z,3.40
2019-03-03T15:26:49.982Z,4.43
2019-03-03T15:29:17.924Z,4.40
2019-03-03T15:31:46.026Z,4.60
2019-03-03T15:34:14.092Z,4.30
2019-03-03T15:36:42.063Z,4.07
2019-03-03T15:39:10.636Z,4.53
2019-03-03T15:41:38.618Z,4.90
2019-03-03T15:44:11.521Z,4.30
2019-03-03T15:46:41.453Z,4.03
2019-03-03T15:49:10.301Z,4.23
2019-03-03T15:51:39.536Z,5.10
2019-03-03T15:54:07.580Z,4.50
2019-03-03T15:56:35.627Z,5.90
2019-03-03T15:59:04.770Z,4.27
2019-03-03T16:01:33.025Z,4.80
2019-03-03T16:04:00.990Z,4.70
2019-03-03T16:06:28.963Z,4.70
2019-03-03T16:08:57.035Z,4.77
2019-03-03T16:11:25.100Z,3.90
2019-03-03T16:13:53.291Z,4.40
2019-03-03T16:16:21.249Z,4.50
2019-03-03T16:18:49.425Z,4.40
2019-03-03T16:21:19.930Z,4.60
2019-03-03T16:23:49.243Z,4.30
2019-03-03T16:26:17.424Z,4.63
2019-03-03T16:28:45.599Z,4.10
2019-03-03T16:31:14.652Z,4.73
2019-03-03T16:33:44.295Z,4.10
2019-03-03T16:36:13.562Z,4.90
2019-03-03T16:38:42.528Z,4.37
2019-03-03T16:41:10.781Z,4.47
2019-03-03T16:43:39.680Z,4.60
2019-03-03T16:46:07.837Z,5.27
2019-03-03T16:48:35.805Z,5.07
2019-03-03T16:51:03.756Z,4.73
2019-03-03T16:53:31.718Z,4.80
2019-03-03T16:55:59.892Z,4.60
2019-03-03T16:58:27.994Z,3.80
2019-03-03T17:00:55.909Z,4.13
2019-03-03T17:03:24.140Z,4.37
2019-03-03T17:05:55.074Z,5.27
2019-03-03T17:08:24.248Z,4.00
2019-03-03T17:10:53.190Z,4.30
2019-03-03T17:13:21.337Z,4.77
2019-03-03T17:15:49.613Z,3.70
2019-03-03T17:18:17.687Z,3.80
2019-03-03T17:20:45.575Z,4.43
2019-03-03T17:23:13.628Z,4.10
2019-03-03T17:25:41.595Z,4.97
2019-03-03T17:28:11.479Z,4.13
2019-03-03T17:30:39.451Z,4.67
2019-03-03T17:33:07.652Z,4.10
2019-03-03T17:35:35.593Z,4.70
2019-03-03T17:38:03.700Z,4.60
2019-03-03T17:40:31.667Z,4.57
2019-03-03T17:42:59.828Z,4.27
2019-03-03T17:45:30.041Z,4.40
2019-03-03T17:47:58.130Z,4.43
2019-03-03T17:50:26.099Z,4.50
2019-03-03T17:52:54.079Z,5.00
2019-03-03T17:55:22.050Z,5.73
2019-03-03T17:57:49.998Z,5.30
2019-03-03T18:00:18.186Z,6.10
2019-03-03T18:02:46.154Z,5.23
2019-03-03T18:05:15.352Z,5.10
2019-03-03T18:07:44.871Z,5.03
2019-03-03T18:10:14.974Z,5.37
2019-03-03T18:12:42.856Z,4.33
2019-03-03T18:15:10.887Z,5.57
2019-03-03T18:17:39.688Z,5.90
2019-03-03T18:20:07.680Z,4.57
2019-03-03T18:22:35.748Z,4.60
2019-03-03T18:25:03.713Z,4.20
2019-03-03T18:27:31.787Z,4.53
2019-03-03T18:29:59.838Z,4.63
2019-03-03T18:32:27.807Z,4.03
2019-03-03T18:34:57.141Z,4.03
2019-03-03T18:37:25.097Z,4.43
2019-03-03T18:39:53.158Z,3.97
2019-03-03T18:42:21.139Z,4.40
2019-03-03T18:44:50.235Z,3.80
2019-03-03T18:47:18.207Z,3.93
2019-03-03T18:49:46.378Z,4.43
2019-03-03T18:52:14.451Z,3.67
2019-03-03T18:54:42.349Z,4.00
2019-03-03T18:57:10.490Z,4.10
2019-03-03T18:59:38.542Z,3.90
2019-03-03T19:02:06.613Z,3.50
2019-03-03T19:04:34.604Z,3.30
2019-03-03T19:07:02.656Z,3.17
2019-03-03T19:09:30.747Z,3.40
2019-03-03T19:11:58.820Z,3.83
2019-03-03T19:14:28.469Z,3.20
2019-03-03T19:16:56.676Z,3.10
2019-03-03T19:19:24.880Z,3.70
2019-03-03T19:21:53.053Z,3.43
2019-03-03T19:24:21.205Z,4.00
2019-03-03T19:26:51.055Z,3.20
2019-03-03T19:29:18.907Z,3.03
2019-03-03T19:31:46.879Z,3.47
2019-03-03T19:34:16.472Z,3.30
2019-03-03T19:36:45.814Z,3.50
2019-03-03T19:39:13.958Z,3.83
2019-03-03T19:41:41.928Z,3.67
2019-03-03T19:44:11.303Z,3.10
2019-03-03T19:46:39.606Z,3.77
2019-03-03T19:49:07.555Z,3.23
2019-03-03T19:51:35.650Z,3.40
2019-03-03T19:54:03.630Z,3.60
2019-03-03T19:56:31.688Z,2.90
2019-03-03T19:59:00.747Z,3.93
2019-03-03T20:01:28.760Z,3.10
2019-03-03T20:03:57.234Z,3.60
2019-03-03T20:06:25.318Z,2.93
2019-03-03T20:08:53.352Z,3.10
2019-03-03T20:11:21.458Z,3.53
2019-03-03T20:13:49.607Z,2.83
2019-03-03T20:16:31.506Z,3.40
2019-03-03T20:18:59.186Z,3.60
2019-03-03T20:21:27.254Z,3.73
2019-03-03T20:23:55.227Z,3.87
2019-03-03T20:26:23.298Z,4.23
2019-03-03T20:28:51.266Z,3.40
2019-03-03T20:31:19.252Z,3.10
2019-03-03T20:33:49.119Z,3.50
2019-03-03T20:36:17.120Z,3.07
2019-03-03T20:38:46.094Z,3.20
2019-03-03T20:41:14.084Z,3.00
2019-03-03T20:43:42.159Z,3.80
2019-03-03T20:46:10.103Z,3.80
2019-03-03T20:48:38.297Z,4.73
2019-03-03T20:51:06.242Z,5.03
2019-03-03T20:53:35.801Z,5.43
2019-03-03T20:56:03.806Z,6.50
2019-03-03T20:58:31.916Z,5.07
2019-03-03T21:01:00.198Z,5.30
2019-03-03T21:03:29.497Z,5.83
2019-03-03T21:05:57.435Z,5.23
2019-03-03T21:08:25.413Z,4.93
2019-03-03T21:10:53.711Z,5.13
2019-03-03T21:13:21.678Z,4.53
2019-03-03T21:15:49.852Z,4.53
2019-03-03T21:18:17.926Z,4.90
2019-03-03T21:20:45.970Z,6.20
2019-03-03T21:23:13.968Z,5.70
2019-03-03T21:25:42.038Z,5.27
2019-03-03T21:28:10.011Z,5.10
2019-03-03T21:30:39.491Z,5.90
2019-03-03T21:33:08.558Z,5.90
2019-03-03T21:35:36.888Z,5.80
2019-03-03T21:38:06.486Z,6.50
2019-03-03T21:40:36.351Z,6.50
2019-03-03T21:43:04.171Z,6.10
2019-03-03T21:45:32.349Z,6.40
2019-03-03T21:48:00.290Z,7.23
2019-03-03T21:50:28.481Z,6.17
2019-03-03T21:52:56.746Z,5.47
2019-03-03T21:55:25.409Z,5.90
2019-03-03T21:57:53.630Z,6.10
2019-03-03T22:00:21.576Z,6.10
2019-03-03T22:02:49.874Z,5.60
2019-03-03T22:05:17.944Z,6.33
2019-03-03T22:07:46.078Z,6.20
2019-03-03T22:10:14.402Z,5.80
2019-03-03T22:12:42.477Z,6.23
2019-03-03T22:15:10.822Z,6.60
2019-03-03T22:17:39.432Z,5.60
2019-03-03T22:20:07.503Z,5.80
2019-03-03T22:22:35.451Z,5.97
2019-03-03T22:25:03.652Z,5.25
2019-03-03T22:27:31.603Z,7.23
2019-03-03T22:29:59.688Z,5.73
2019-03-03T22:32:27.967Z,6.00
2019-03-03T22:34:56.147Z,5.17
2019-03-03T22:37:24.089Z,4.80
2019-03-03T22:39:52.589Z,4.80
2019-03-03T22:42:20.561Z,3.73
2019-03-03T22:44:50.312Z,3.20
2019-03-03T22:47:18.418Z,3.60
2019-03-03T22:49:46.805Z,3.87
2019-03-03T22:52:15.610Z,3.67
2019-03-03T22:54:44.160Z,3.50
2019-03-03T22:57:12.850Z,3.20
2019-03-03T22:59:41.715Z,3.00
2019-03-03T23:02:10.149Z,3.67
2019-03-03T23:04:38.905Z,3.70
2019-03-03T23:07:08.463Z,3.80
2019-03-03T23:09:36.593Z,3.50
2019-03-03T23:12:04.558Z,3.60
2019-03-03T23:14:32.729Z,3.60
2019-03-03T23:17:00.728Z,3.40
2019-03-03T23:19:28.907Z,3.40
2019-03-03T23:21:56.981Z,3.43
2019-03-03T23:24:24.917Z,3.10
2019-03-03T23:26:52.916Z,2.87
2019-03-03T23:29:20.853Z,3.30
2019-03-03T23:31:48.859Z,3.23
2019-03-03T23:34:16.926Z,3.00
2019-03-03T23:36:44.895Z,3.17
2019-03-03T23:39:12.863Z,2.87
2019-03-03T23:41:40.935Z,3.43
2019-03-03T23:44:08.881Z,3.23
2019-03-03T23:46:38.806Z,3.20
2019-03-03T23:49:06.453Z,2.97
2019-03-03T23:51:36.157Z,3.27
2019-03-03T23:54:04.237Z,3.50
2019-03-03T23:56:32.345Z,3.07
2019-03-03T23:59:00.392Z,3.10
